Hauptseite
METAR-TAF:

METAR-TAF

Flughäfen :

Memmingen, Deutschland

Breite: 47-59-33N, Länge: 10-14-37E, Höhe: 633 m

Beobachtung

Neuester Wetterbericht von vor 48 Minuten, um 19:20 UTC
Wind 3 kt aus Nordost
Temperatur -3°C
Luftfeuchtigkeit 86%
Luftdruck 1014 hPa
Sichtweite: 7000 m
Durchbrochene Bewölkung in der Höhe von 3000 ft

METAR: EDJA 201920Z 05003KT 7000 BKN030 M03/M05 Q1014

Zeit: 21:08 (20:08 UTC)

Prognose

Neuester Wetterbericht von vor 3 Stunden und 8 Minuten, um 17:00 UTC
Gültige Prognose vom 20 um 18 UTC bis 21 um 03 UTC
Wind 3 kt aus unterschiedlichen Richtungen
Sichtweite 10 km oder mehr
Durchbrochene Bewölkung in der Höhe von 4000 ft
Zeitweise
vom 20 um 19 UTC bis 21 um 03 UTC
Sichtweite: 2500 m
Durchbrochene Bewölkung in der Höhe von 600 ft
feuchter Dunst

TAF: EDJA 201700Z 2018/2103 VRB03KT 9999 BKN040 TEMPO 2019/2103 2500 BR BKN006

Wetterbeobachtungen und Prognosen von mehr als 4000 Flughäfen (METAR und TAF Bericht).

Die verfügbaren Stationen werden durch gelbe und rote Markierungen auf der Karte dargestellt.

Führen Sie die Maus auf sie, um den Namen der Station zu sehen.

Darauf klicken, um die Beobachtung von Wetterbeobachtungen und Prognosen zu sehen.

Um die Karte zu ändern : klicken Sie auf den grünen Tasten mit einem schwarzen Kreuz Zum Vergrößern, auf den grünen Button mit einem Gedankenstrich zu verkleinern, oder auf die grünen Pfeile für benachbarte Karten.


METAR-TAF: